createdAt,value
2022-07-30T00:00:40.120Z,1.63
2022-07-30T00:03:08.927Z,1.40
2022-07-30T00:05:39.289Z,1.63
2022-07-30T00:08:08.202Z,1.70
2022-07-30T00:10:36.998Z,1.50
2022-07-30T00:13:05.925Z,1.30
2022-07-30T00:15:34.844Z,1.50
2022-07-30T00:18:03.703Z,1.63
2022-07-30T00:20:33.512Z,1.70
2022-07-30T00:23:05.898Z,1.40
2022-07-30T00:25:35.019Z,1.60
2022-07-30T00:28:03.883Z,1.70
2022-07-30T00:30:32.799Z,1.40
2022-07-30T00:33:01.693Z,1.40
2022-07-30T00:35:30.742Z,1.80
2022-07-30T00:37:59.662Z,1.73
2022-07-30T00:40:30.203Z,1.63
2022-07-30T00:42:59.031Z,1.63
2022-07-30T00:45:28.925Z,1.60
2022-07-30T00:47:59.011Z,1.50
2022-07-30T00:50:27.840Z,1.70
2022-07-30T00:52:56.687Z,1.50
2022-07-30T00:55:25.500Z,1.57
2022-07-30T00:57:55.787Z,1.40
2022-07-30T01:00:25.572Z,1.67
2022-07-30T01:02:54.494Z,1.70
2022-07-30T01:05:23.315Z,1.30
2022-07-30T01:07:52.646Z,1.60
2022-07-30T01:10:21.575Z,1.60
2022-07-30T01:12:52.880Z,1.87
2022-07-30T01:15:23.675Z,1.67
2022-07-30T01:17:56.860Z,1.60
2022-07-30T01:20:29.139Z,1.43
2022-07-30T01:23:06.773Z,1.57
2022-07-30T01:25:56.850Z,1.60
2022-07-30T01:28:29.360Z,1.60
2022-07-30T01:31:00.657Z,1.63
2022-07-30T01:33:30.174Z,1.60
2022-07-30T01:36:00.751Z,1.43
2022-07-30T01:38:35.262Z,1.60
2022-07-30T01:41:08.177Z,1.40
2022-07-30T01:43:38.069Z,1.80
2022-07-30T01:46:08.727Z,1.70
2022-07-30T01:48:41.899Z,1.60
2022-07-30T01:51:14.066Z,1.67
2022-07-30T01:53:49.613Z,1.53
2022-07-30T01:56:25.160Z,1.60
2022-07-30T01:58:57.180Z,1.60
2022-07-30T02:01:28.151Z,1.73
2022-07-30T02:04:04.245Z,1.53
2022-07-30T02:06:41.675Z,1.63
2022-07-30T02:09:17.045Z,1.70
2022-07-30T02:12:09.659Z,1.70
2022-07-30T02:14:43.135Z,1.50
2022-07-30T02:17:18.514Z,1.67
2022-07-30T02:19:51.247Z,1.40
2022-07-30T02:22:23.434Z,1.40
2022-07-30T02:24:53.598Z,1.53
2022-07-30T02:27:28.842Z,1.70
2022-07-30T02:30:00.703Z,1.53
2022-07-30T02:32:39.229Z,1.53
2022-07-30T02:35:11.990Z,1.80
2022-07-30T02:37:44.176Z,1.30
2022-07-30T02:40:17.232Z,1.47
2022-07-30T02:42:50.640Z,1.67
2022-07-30T02:45:25.405Z,1.40
2022-07-30T02:47:59.242Z,1.80
2022-07-30T02:50:30.072Z,1.70
2022-07-30T02:53:01.323Z,1.50
2022-07-30T02:55:33.141Z,1.53
2022-07-30T02:58:05.652Z,1.37
2022-07-30T03:00:36.051Z,1.50
2022-07-30T03:03:08.135Z,1.30
2022-07-30T03:05:41.085Z,1.93
2022-07-30T03:08:11.790Z,1.70
2022-07-30T03:10:42.841Z,1.60
2022-07-30T03:13:14.907Z,1.67
2022-07-30T03:15:49.147Z,1.37
2022-07-30T03:18:21.297Z,1.30
2022-07-30T03:20:55.010Z,1.33
2022-07-30T03:23:25.382Z,1.60
2022-07-30T03:25:58.488Z,1.23
2022-07-30T03:28:30.983Z,1.50
2022-07-30T03:31:01.214Z,1.30
2022-07-30T03:33:38.909Z,1.30
2022-07-30T03:36:09.607Z,1.57
2022-07-30T03:38:39.294Z,1.30
2022-07-30T03:41:10.239Z,1.10
2022-07-30T03:43:41.999Z,1.07
2022-07-30T03:46:12.543Z,1.23
2022-07-30T03:48:46.214Z,1.10
2022-07-30T03:51:15.334Z,1.70
2022-07-30T03:53:44.768Z,1.27
2022-07-30T03:56:32.331Z,1.30
2022-07-30T03:59:11.098Z,1.30
2022-07-30T04:01:42.970Z,1.20
2022-07-30T04:04:26.525Z,1.30
2022-07-30T04:06:56.459Z,1.00
2022-07-30T04:09:25.263Z,1.30
2022-07-30T04:11:54.281Z,1.27
2022-07-30T04:14:29.363Z,1.40
2022-07-30T04:17:04.149Z,1.00
2022-07-30T04:19:39.063Z,1.20
2022-07-30T04:22:12.699Z,1.30
2022-07-30T04:24:43.630Z,1.57
2022-07-30T04:27:12.944Z,1.47
2022-07-30T04:29:43.486Z,1.53
2022-07-30T04:32:13.082Z,1.17
2022-07-30T04:34:48.979Z,1.27
2022-07-30T04:37:24.001Z,1.20
2022-07-30T04:39:55.167Z,1.10
2022-07-30T04:42:24.163Z,1.40
2022-07-30T04:45:04.150Z,1.50
2022-07-30T04:47:48.235Z,0.97
2022-07-30T04:50:56.685Z,1.20
2022-07-30T04:53:27.339Z,1.10
2022-07-30T04:56:01.535Z,1.20
2022-07-30T04:58:33.358Z,1.30
2022-07-30T05:01:05.339Z,1.30
2022-07-30T05:03:36.432Z,1.30
2022-07-30T05:06:06.955Z,1.00
2022-07-30T05:08:40.261Z,1.17
2022-07-30T05:11:13.850Z,1.13
2022-07-30T05:13:46.105Z,1.10
2022-07-30T05:16:19.264Z,1.10
2022-07-30T05:18:49.486Z,0.93
2022-07-30T05:21:18.510Z,1.40
2022-07-30T05:23:50.826Z,1.00
2022-07-30T05:26:42.695Z,1.00
2022-07-30T05:29:14.965Z,1.20
2022-07-30T05:31:56.926Z,1.30
2022-07-30T05:34:32.363Z,1.10
2022-07-30T05:37:01.809Z,1.13
2022-07-30T05:39:31.226Z,1.17
2022-07-30T05:42:36.550Z,1.30
2022-07-30T05:45:05.778Z,1.10
2022-07-30T05:47:36.129Z,1.20
2022-07-30T05:50:05.572Z,1.40
2022-07-30T05:52:34.859Z,1.07
2022-07-30T05:55:15.114Z,1.00
2022-07-30T05:58:10.185Z,1.30
2022-07-30T06:00:39.122Z,1.53
2022-07-30T06:03:09.639Z,1.53
2022-07-30T06:05:56.984Z,1.47
2022-07-30T06:08:25.855Z,1.17
2022-07-30T06:10:54.606Z,1.20
2022-07-30T06:13:23.825Z,1.00
2022-07-30T06:15:52.804Z,1.10
2022-07-30T06:18:23.512Z,1.20
2022-07-30T06:20:55.975Z,1.10
2022-07-30T06:23:53.669Z,0.93
2022-07-30T06:26:41.157Z,0.98
2022-07-30T06:29:10.504Z,1.20
2022-07-30T06:31:42.536Z,1.20
2022-07-30T06:34:15.156Z,1.15
2022-07-30T06:36:44.820Z,1.23
2022-07-30T06:39:56.091Z,1.30
2022-07-30T06:42:21.330Z,1.88
2022-07-30T06:45:11.634Z,1.30
2022-07-30T06:47:59.920Z,1.50
2022-07-30T06:50:33.123Z,1.58
2022-07-30T06:53:02.084Z,1.52
2022-07-30T06:55:45.644Z,1.17
2022-07-30T06:58:14.497Z,1.50
2022-07-30T07:01:11.060Z,1.58
2022-07-30T07:03:41.957Z,1.40
2022-07-30T07:06:12.558Z,1.50
2022-07-30T07:08:41.303Z,1.65
2022-07-30T07:11:12.743Z,1.63
2022-07-30T07:13:48.171Z,2.08
2022-07-30T07:16:26.393Z,1.80
2022-07-30T07:18:57.261Z,1.70
2022-07-30T07:21:27.699Z,1.58
2022-07-30T07:23:57.408Z,1.70
2022-07-30T07:26:44.712Z,1.50
2022-07-30T07:29:13.676Z,1.58
2022-07-30T07:32:06.273Z,1.50
2022-07-30T07:34:31.588Z,1.80
2022-07-30T07:37:02.384Z,1.70
2022-07-30T07:39:31.454Z,1.85
2022-07-30T07:42:00.846Z,1.42
2022-07-30T07:44:32.615Z,1.45
2022-07-30T07:47:02.171Z,1.48
2022-07-30T07:49:35.058Z,1.30
2022-07-30T07:52:05.993Z,1.27
2022-07-30T07:54:34.764Z,1.20
2022-07-30T07:57:04.772Z,1.50
2022-07-30T07:59:40.957Z,1.40
2022-07-30T08:02:21.256Z,1.15
2022-07-30T08:05:10.818Z,1.10
2022-07-30T08:07:56.205Z,0.90
2022-07-30T08:10:43.624Z,1.08
2022-07-30T08:13:52.376Z,1.05
2022-07-30T08:16:40.691Z,0.95
2022-07-30T08:19:15.167Z,0.82
2022-07-30T08:21:53.208Z,0.90
2022-07-30T08:24:23.549Z,0.90
2022-07-30T08:26:52.426Z,1.00
2022-07-30T08:29:21.238Z,0.80
2022-07-30T08:31:50.476Z,0.90
2022-07-30T08:34:20.743Z,0.85
2022-07-30T08:36:57.433Z,0.90
2022-07-30T08:39:28.503Z,0.90
2022-07-30T08:41:57.746Z,0.98
2022-07-30T08:44:27.738Z,0.98
2022-07-30T08:46:58.925Z,1.00
2022-07-30T08:49:51.203Z,0.90
2022-07-30T08:52:24.965Z,1.00
2022-07-30T08:55:03.363Z,1.10
2022-07-30T08:57:35.103Z,1.25
2022-07-30T09:00:07.503Z,1.00
2022-07-30T09:02:36.717Z,1.00
2022-07-30T09:05:07.780Z,0.80
2022-07-30T09:07:37.876Z,1.08
2022-07-30T09:10:13.540Z,0.73
2022-07-30T09:12:43.802Z,1.00
2022-07-30T09:15:15.913Z,1.23
2022-07-30T09:17:50.275Z,0.82
2022-07-30T09:20:19.955Z,1.00
2022-07-30T09:22:50.043Z,0.75
2022-07-30T09:25:47.914Z,0.80
2022-07-30T09:28:36.107Z,0.90
2022-07-30T09:31:14.092Z,0.80
2022-07-30T09:34:01.586Z,0.93
2022-07-30T09:37:01.144Z,0.88
2022-07-30T09:39:34.760Z,0.80
2022-07-30T09:42:28.540Z,1.00
2022-07-30T09:45:08.191Z,0.90
2022-07-30T09:47:39.219Z,0.93
2022-07-30T09:50:09.755Z,1.00
2022-07-30T09:52:43.944Z,0.80
2022-07-30T09:55:31.038Z,0.95
2022-07-30T09:58:03.150Z,0.90
2022-07-30T10:00:34.100Z,1.00
2022-07-30T10:03:41.651Z,0.93
2022-07-30T10:06:35.605Z,0.82
2022-07-30T10:09:27.212Z,0.95
2022-07-30T10:11:58.728Z,0.90
2022-07-30T10:14:34.350Z,0.80
2022-07-30T10:17:11.789Z,0.90
2022-07-30T10:19:43.566Z,0.80
2022-07-30T10:22:50.531Z,0.73
2022-07-30T10:25:49.439Z,0.80
2022-07-30T10:28:44.421Z,0.90
2022-07-30T10:31:48.801Z,0.80
2022-07-30T10:34:06.562Z,0.70
2022-07-30T10:36:37.261Z,0.82
2022-07-30T10:39:09.187Z,0.80
2022-07-30T10:41:53.999Z,0.75
2022-07-30T10:44:52.990Z,0.80
2022-07-30T10:47:29.760Z,0.80
2022-07-30T10:50:15.691Z,0.90
2022-07-30T10:52:50.807Z,0.82
2022-07-30T10:55:37.497Z,0.75
2022-07-30T10:58:10.446Z,0.90
2022-07-30T11:01:00.788Z,1.10
2022-07-30T11:03:41.592Z,1.00
2022-07-30T11:06:31.755Z,0.70
2022-07-30T11:09:00.789Z,2.08
2022-07-30T11:12:04.879Z,3.78
2022-07-30T11:15:07.569Z,1.70
2022-07-30T11:18:12.835Z,1.05
2022-07-30T11:20:48.710Z,1.17
2022-07-30T11:23:40.251Z,0.88
2022-07-30T11:26:14.482Z,1.00
2022-07-30T11:28:49.605Z,0.82
2022-07-30T11:31:55.507Z,0.85
2022-07-30T11:34:29.769Z,0.77
2022-07-30T11:37:18.459Z,0.80
2022-07-30T11:40:13.977Z,1.00
2022-07-30T11:42:43.927Z,0.88
2022-07-30T11:45:31.195Z,0.85
2022-07-30T11:48:03.824Z,0.70
2022-07-30T11:50:34.919Z,0.82
2022-07-30T11:53:06.853Z,0.98
2022-07-30T11:55:39.108Z,0.80
2022-07-30T11:58:09.935Z,0.90
2022-07-30T12:00:41.277Z,0.88
2022-07-30T12:03:12.299Z,1.20
2022-07-30T12:05:42.212Z,0.90
2022-07-30T12:08:31.702Z,0.80
2022-07-30T12:11:03.502Z,1.00
2022-07-30T12:13:45.370Z,0.80
2022-07-30T12:16:18.663Z,0.80
2022-07-30T12:18:48.560Z,0.90
2022-07-30T12:21:18.099Z,0.90
2022-07-30T12:23:57.721Z,1.10
2022-07-30T12:26:29.125Z,0.90
2022-07-30T12:29:00.944Z,0.85
2022-07-30T12:31:30.204Z,1.02
2022-07-30T12:34:00.653Z,0.90
2022-07-30T12:36:32.339Z,1.13
2022-07-30T12:39:03.891Z,0.90
2022-07-30T12:41:47.111Z,1.10
2022-07-30T12:44:37.793Z,0.90
2022-07-30T12:47:07.807Z,1.20
2022-07-30T12:49:48.597Z,0.98
2022-07-30T12:52:28.250Z,1.00
2022-07-30T12:55:10.252Z,0.98
2022-07-30T12:58:02.974Z,1.02
2022-07-30T13:00:52.553Z,1.02
2022-07-30T13:03:23.033Z,1.23
2022-07-30T13:05:55.668Z,0.90
2022-07-30T13:08:53.127Z,1.00
2022-07-30T13:11:24.859Z,0.90
2022-07-30T13:13:54.521Z,1.25
2022-07-30T13:16:23.558Z,0.90
2022-07-30T13:18:52.511Z,0.85
2022-07-30T13:21:21.509Z,0.75
2022-07-30T13:23:50.482Z,0.80
2022-07-30T13:26:19.498Z,0.82
2022-07-30T13:28:50.027Z,0.80
2022-07-30T13:31:19.647Z,0.70
2022-07-30T13:33:48.526Z,0.80
2022-07-30T13:36:18.047Z,1.00
2022-07-30T13:38:52.063Z,0.80
2022-07-30T13:41:21.586Z,0.82
2022-07-30T13:43:51.982Z,0.82
2022-07-30T13:46:21.010Z,0.90
2022-07-30T13:48:50.245Z,0.90
2022-07-30T13:51:19.247Z,1.17
2022-07-30T13:53:48.195Z,1.05
2022-07-30T13:56:19.715Z,0.90
2022-07-30T13:58:48.993Z,0.90
2022-07-30T14:01:19.497Z,0.90
2022-07-30T14:03:50.578Z,0.90
2022-07-30T14:06:20.012Z,0.80
2022-07-30T14:08:48.968Z,0.90
2022-07-30T14:11:18.150Z,1.05
2022-07-30T14:13:47.338Z,0.75
2022-07-30T14:16:42.437Z,0.85
2022-07-30T14:19:07.467Z,0.80
2022-07-30T14:21:36.510Z,0.90
2022-07-30T14:24:07.993Z,0.80
2022-07-30T14:26:37.482Z,0.82
2022-07-30T14:29:06.593Z,0.70
2022-07-30T14:31:36.135Z,0.82
2022-07-30T14:34:06.799Z,0.90
2022-07-30T14:36:37.558Z,0.90
2022-07-30T14:39:07.620Z,1.02
2022-07-30T14:41:37.574Z,1.08
2022-07-30T14:44:09.963Z,0.90
2022-07-30T14:46:38.946Z,0.80
2022-07-30T14:49:24.155Z,1.10
2022-07-30T14:51:53.650Z,0.80
2022-07-30T14:54:22.828Z,0.90
2022-07-30T14:56:57.746Z,0.80
2022-07-30T14:59:28.159Z,0.90
2022-07-30T15:01:57.689Z,0.90
2022-07-30T15:04:28.327Z,0.70
2022-07-30T15:06:57.580Z,0.90
2022-07-30T15:09:26.426Z,0.90
2022-07-30T15:12:10.972Z,0.80
2022-07-30T15:14:41.047Z,0.90
2022-07-30T15:17:10.148Z,0.90
2022-07-30T15:19:50.387Z,0.70
2022-07-30T15:22:20.301Z,0.82
2022-07-30T15:24:50.360Z,0.85
2022-07-30T15:27:22.340Z,0.70
2022-07-30T15:29:53.938Z,0.88
2022-07-30T15:32:22.777Z,0.80
2022-07-30T15:34:53.292Z,0.80
2022-07-30T15:37:23.474Z,0.93
2022-07-30T15:39:53.724Z,0.90
2022-07-30T15:42:22.660Z,0.80
2022-07-30T15:45:15.453Z,0.60
2022-07-30T15:47:40.785Z,0.80
2022-07-30T15:50:12.016Z,0.90
2022-07-30T15:52:41.008Z,0.70
2022-07-30T15:55:10.926Z,1.00
2022-07-30T15:57:40.831Z,0.80
2022-07-30T16:00:12.829Z,1.10
2022-07-30T16:02:43.920Z,0.70
2022-07-30T16:05:14.487Z,0.88
2022-07-30T16:07:43.653Z,1.00
2022-07-30T16:10:15.834Z,0.85
2022-07-30T16:12:44.918Z,1.00
2022-07-30T16:15:14.314Z,0.80
2022-07-30T16:17:46.232Z,0.80
2022-07-30T16:20:18.141Z,0.98
2022-07-30T16:22:48.034Z,1.00
2022-07-30T16:25:18.222Z,0.73
2022-07-30T16:27:47.277Z,0.80
2022-07-30T16:30:16.218Z,0.90
2022-07-30T16:32:45.294Z,0.95
2022-07-30T16:35:14.334Z,0.90
2022-07-30T16:37:44.805Z,0.98
2022-07-30T16:40:14.240Z,0.77
2022-07-30T16:42:43.262Z,0.95
2022-07-30T16:45:12.770Z,0.90
2022-07-30T16:47:41.780Z,0.80
2022-07-30T16:50:11.670Z,1.05
2022-07-30T16:52:40.625Z,0.90
2022-07-30T16:55:11.739Z,0.80
2022-07-30T16:57:40.730Z,0.90
2022-07-30T17:00:12.489Z,0.80
2022-07-30T17:02:41.525Z,0.90
2022-07-30T17:05:13.769Z,0.75
2022-07-30T17:07:43.286Z,1.02
2022-07-30T17:10:13.818Z,0.93
2022-07-30T17:12:50.867Z,0.80
2022-07-30T17:15:20.249Z,0.70
2022-07-30T17:18:01.342Z,0.90
2022-07-30T17:20:30.491Z,0.95
2022-07-30T17:22:59.457Z,0.80
2022-07-30T17:25:30.049Z,1.05
2022-07-30T17:28:00.366Z,0.90
2022-07-30T17:30:30.179Z,0.90
2022-07-30T17:32:59.462Z,0.90
2022-07-30T17:35:28.494Z,0.90
2022-07-30T17:37:57.377Z,0.82
2022-07-30T17:40:31.656Z,1.33
2022-07-30T17:43:04.906Z,1.00
2022-07-30T17:45:34.615Z,0.88
2022-07-30T17:48:03.712Z,0.93
2022-07-30T17:50:33.030Z,0.90
2022-07-30T17:53:03.695Z,1.00
2022-07-30T17:55:35.287Z,0.90
2022-07-30T17:58:06.471Z,1.27
2022-07-30T18:00:36.164Z,0.93
2022-07-30T18:03:05.641Z,1.10
2022-07-30T18:05:34.679Z,1.05
2022-07-30T18:08:03.592Z,1.00
2022-07-30T18:10:32.631Z,0.90
2022-07-30T18:13:25.818Z,0.82
2022-07-30T18:15:52.942Z,0.70
2022-07-30T18:18:22.011Z,1.00
2022-07-30T18:20:50.959Z,0.80
2022-07-30T18:23:20.514Z,0.75
2022-07-30T18:25:54.241Z,1.00
2022-07-30T18:28:23.741Z,0.88
2022-07-30T18:30:55.354Z,0.82
2022-07-30T18:33:24.402Z,0.90
2022-07-30T18:35:54.291Z,1.00
2022-07-30T18:38:23.277Z,0.93
2022-07-30T18:40:59.182Z,0.82
2022-07-30T18:43:29.246Z,0.90
2022-07-30T18:46:02.766Z,0.77
2022-07-30T18:48:31.822Z,0.85
2022-07-30T18:51:00.882Z,0.90
2022-07-30T18:53:29.909Z,1.00
2022-07-30T18:55:59.374Z,0.90
2022-07-30T18:58:28.330Z,0.73
2022-07-30T19:01:00.252Z,0.95
2022-07-30T19:03:29.262Z,0.82
2022-07-30T19:05:58.306Z,0.90
2022-07-30T19:08:27.937Z,0.77
2022-07-30T19:10:56.817Z,1.10
2022-07-30T19:13:26.377Z,0.70
2022-07-30T19:15:56.203Z,0.80
2022-07-30T19:18:26.829Z,0.95
2022-07-30T19:20:55.749Z,0.85
2022-07-30T19:23:24.734Z,0.80
2022-07-30T19:25:55.982Z,0.80
2022-07-30T19:28:25.594Z,0.90
2022-07-30T19:30:54.419Z,0.80
2022-07-30T19:33:24.327Z,0.90
2022-07-30T19:35:54.581Z,1.00
2022-07-30T19:38:23.952Z,0.82
2022-07-30T19:40:53.516Z,0.65
2022-07-30T19:43:23.927Z,0.70
2022-07-30T19:45:53.268Z,0.77
2022-07-30T19:48:28.903Z,0.80
2022-07-30T19:51:02.044Z,0.80
2022-07-30T19:53:34.391Z,0.80
2022-07-30T19:56:08.424Z,0.77
2022-07-30T19:58:40.519Z,0.80
2022-07-30T20:01:10.021Z,0.80
2022-07-30T20:03:39.277Z,0.80
2022-07-30T20:06:14.506Z,0.90
2022-07-30T20:08:44.562Z,0.80
2022-07-30T20:11:21.130Z,0.80
2022-07-30T20:14:03.558Z,0.73
2022-07-30T20:16:32.498Z,0.70
2022-07-30T20:19:03.299Z,0.80
2022-07-30T20:21:57.513Z,0.80
2022-07-30T20:24:25.624Z,0.80
2022-07-30T20:26:54.488Z,0.70
2022-07-30T20:29:23.879Z,0.77
2022-07-30T20:31:53.630Z,0.75
2022-07-30T20:34:25.958Z,0.80
2022-07-30T20:36:56.781Z,0.73
2022-07-30T20:39:26.466Z,0.82
2022-07-30T20:42:08.074Z,0.80
2022-07-30T20:44:38.230Z,0.88
2022-07-30T20:47:08.332Z,0.80
2022-07-30T20:49:37.539Z,0.70
2022-07-30T20:52:10.849Z,0.60
2022-07-30T20:54:45.034Z,0.80
2022-07-30T20:57:15.649Z,0.70
2022-07-30T20:59:48.922Z,0.73
2022-07-30T21:02:18.959Z,0.70
2022-07-30T21:04:59.809Z,0.80
2022-07-30T21:07:36.622Z,0.80
2022-07-30T21:10:07.377Z,1.10
2022-07-30T21:12:37.242Z,0.80
2022-07-30T21:17:57.763Z,0.60
2022-07-30T21:20:27.996Z,0.80
2022-07-30T21:23:04.931Z,0.55
2022-07-30T21:25:34.483Z,0.70
2022-07-30T21:28:27.544Z,0.70
2022-07-30T21:30:57.151Z,0.70
2022-07-30T21:33:30.957Z,0.73
2022-07-30T21:36:01.207Z,0.70
2022-07-30T21:38:32.157Z,0.80
2022-07-30T21:41:02.609Z,0.68
2022-07-30T21:43:39.707Z,0.80
2022-07-30T21:46:11.130Z,0.80
2022-07-30T21:48:40.113Z,0.70
2022-07-30T21:51:10.057Z,0.70
2022-07-30T21:53:45.030Z,0.80
2022-07-30T21:56:16.290Z,0.82
2022-07-30T21:58:46.142Z,1.00
2022-07-30T22:01:22.574Z,0.90
2022-07-30T22:04:03.169Z,0.70
2022-07-30T22:06:37.762Z,0.52
2022-07-30T22:09:19.565Z,0.70
2022-07-30T22:12:09.245Z,0.80
2022-07-30T22:14:39.402Z,0.70
2022-07-30T22:17:22.463Z,0.60
2022-07-30T22:19:54.790Z,0.70
2022-07-30T22:22:27.214Z,0.68
2022-07-30T22:25:00.037Z,0.70
2022-07-30T22:27:39.392Z,0.63
2022-07-30T22:30:11.272Z,0.80
2022-07-30T22:32:43.134Z,0.75
2022-07-30T22:35:13.146Z,0.70
2022-07-30T22:37:46.041Z,0.70
2022-07-30T22:40:16.441Z,0.77
2022-07-30T22:42:46.716Z,0.70
2022-07-30T22:45:45.770Z,0.73
2022-07-30T22:48:11.081Z,0.80
2022-07-30T22:50:40.915Z,0.65
2022-07-30T22:53:56.659Z,0.80
2022-07-30T22:56:00.773Z,1.13
2022-07-30T22:58:30.375Z,0.60
2022-07-30T23:00:59.237Z,1.00
2022-07-30T23:03:28.121Z,0.88
2022-07-30T23:05:57.290Z,0.70
2022-07-30T23:08:30.191Z,0.90
2022-07-30T23:11:01.247Z,0.90
2022-07-30T23:12:32.128Z,0.70
2022-07-30T23:13:30.891Z,0.68
2022-07-30T23:16:00.016Z,0.77
2022-07-30T23:18:29.131Z,0.68
2022-07-30T23:21:00.427Z,0.75
2022-07-30T23:23:30.873Z,0.90
2022-07-30T23:26:04.542Z,0.82
2022-07-30T23:28:33.633Z,0.77
2022-07-30T23:31:03.690Z,0.90
2022-07-30T23:33:33.214Z,0.90
2022-07-30T23:36:02.127Z,0.70
2022-07-30T23:38:31.014Z,0.70
2022-07-30T23:41:02.158Z,0.60
2022-07-30T23:43:32.858Z,0.80
2022-07-30T23:46:01.807Z,0.93
2022-07-30T23:48:31.888Z,0.70
2022-07-30T23:51:00.854Z,0.70
2022-07-30T23:53:29.727Z,0.68
2022-07-30T23:55:58.880Z,0.82
2022-07-30T23:58:27.691Z,0.80
